createdAt,value
2023-01-12T00:02:16.848Z,6.17
2023-01-12T00:04:43.606Z,6.60
2023-01-12T00:07:13.617Z,7.43
2023-01-12T00:09:40.457Z,6.63
2023-01-12T00:12:10.683Z,5.93
2023-01-12T00:14:38.016Z,6.97
2023-01-12T00:17:05.580Z,7.23
2023-01-12T00:19:33.248Z,6.13
2023-01-12T00:22:13.295Z,6.53
2023-01-12T00:24:44.972Z,5.40
2023-01-12T00:27:15.172Z,6.27
2023-01-12T00:29:41.982Z,6.00
2023-01-12T00:32:13.336Z,6.17
2023-01-12T00:34:43.956Z,7.13
2023-01-12T00:37:10.925Z,6.47
2023-01-12T00:39:40.758Z,6.60
2023-01-12T00:42:31.147Z,6.43
2023-01-12T00:45:23.967Z,5.90
2023-01-12T00:47:53.916Z,5.43
2023-01-12T00:50:20.657Z,5.80
2023-01-12T00:52:50.243Z,5.70
2023-01-12T00:55:18.114Z,6.77
2023-01-12T00:57:44.833Z,5.80
2023-01-12T01:00:12.066Z,5.60
2023-01-12T01:02:38.732Z,6.40
2023-01-12T01:05:05.713Z,5.63
2023-01-12T01:07:32.366Z,6.37
2023-01-12T01:09:58.997Z,5.77
2023-01-12T01:12:26.418Z,5.40
2023-01-12T01:14:55.666Z,5.80
2023-01-12T01:17:25.416Z,6.43
2023-01-12T01:19:54.747Z,5.77
2023-01-12T01:22:24.236Z,5.20
2023-01-12T01:24:50.880Z,5.10
2023-01-12T01:27:17.581Z,5.50
2023-01-12T01:29:44.197Z,5.00
2023-01-12T01:32:10.816Z,6.23
2023-01-12T01:34:37.528Z,5.97
2023-01-12T01:37:04.218Z,5.67
2023-01-12T01:39:30.856Z,5.47
2023-01-12T01:41:57.480Z,6.27
2023-01-12T01:44:30.340Z,6.20
2023-01-12T01:47:02.979Z,5.20
2023-01-12T01:49:49.918Z,5.47
2023-01-12T01:52:31.737Z,4.70
2023-01-12T01:55:56.802Z,5.13
2023-01-12T01:58:28.370Z,4.88
2023-01-12T02:00:55.119Z,5.60
2023-01-12T02:03:21.926Z,5.37
2023-01-12T02:05:49.134Z,4.87
2023-01-12T02:08:23.401Z,5.13
2023-01-12T02:13:36.169Z,4.83
2023-01-12T02:16:23.078Z,5.43
2023-01-12T02:18:54.142Z,4.53
2023-01-12T02:21:52.024Z,4.87
2023-01-12T02:24:34.965Z,4.80
2023-01-12T02:27:34.232Z,4.60
2023-01-12T02:30:19.585Z,4.33
2023-01-12T02:33:02.656Z,4.60
2023-01-12T02:35:37.907Z,3.77
2023-01-12T02:38:36.513Z,5.03
2023-01-12T02:41:45.901Z,3.90
2023-01-12T02:44:18.577Z,3.63
2023-01-12T02:46:47.618Z,3.80
2023-01-12T02:49:15.691Z,4.20
2023-01-12T02:51:54.348Z,3.80
2023-01-12T02:54:21.758Z,4.13
2023-01-12T02:56:54.061Z,3.70
2023-01-12T02:59:24.333Z,3.57
2023-01-12T03:01:52.333Z,3.53
2023-01-12T03:04:20.125Z,4.40
2023-01-12T03:07:26.850Z,3.60
2023-01-12T03:09:57.415Z,3.33
2023-01-12T03:12:27.051Z,3.97
2023-01-12T03:14:54.085Z,3.13
2023-01-12T03:17:26.461Z,3.23
2023-01-12T03:19:54.855Z,3.77
2023-01-12T03:22:21.813Z,3.67
2023-01-12T03:24:51.748Z,3.43
2023-01-12T03:27:21.826Z,3.27
2023-01-12T03:29:54.655Z,3.20
2023-01-12T03:32:21.933Z,3.47
2023-01-12T03:34:48.741Z,3.03
2023-01-12T03:37:26.030Z,4.63
2023-01-12T03:40:11.953Z,3.17
2023-01-12T03:45:41.574Z,3.00
2023-01-12T03:48:12.184Z,2.63
2023-01-12T03:50:43.756Z,3.20
2023-01-12T03:53:11.072Z,2.70
2023-01-12T03:55:38.073Z,4.37
2023-01-12T03:58:04.970Z,3.63
2023-01-12T04:00:32.080Z,3.70
2023-01-12T04:03:12.751Z,3.10
2023-01-12T04:05:41.875Z,2.50
2023-01-12T04:08:09.344Z,3.13
2023-01-12T04:10:36.483Z,2.60
2023-01-12T04:13:03.136Z,3.10
2023-01-12T04:15:30.166Z,2.73
2023-01-12T04:17:56.765Z,2.67
2023-01-12T04:20:23.832Z,2.70
2023-01-12T04:22:50.458Z,2.57
2023-01-12T04:25:20.044Z,2.40
2023-01-12T04:27:48.765Z,3.10
2023-01-12T04:30:17.367Z,2.40
2023-01-12T04:32:44.679Z,2.80
2023-01-12T04:35:14.796Z,2.80
2023-01-12T04:37:41.417Z,2.70
2023-01-12T04:40:09.307Z,2.80
2023-01-12T04:42:54.560Z,2.73
2023-01-12T04:45:21.194Z,2.30
2023-01-12T04:47:47.823Z,2.47
2023-01-12T04:50:14.752Z,2.83
2023-01-12T04:52:41.333Z,3.13
2023-01-12T04:55:08.266Z,2.40
2023-01-12T04:57:35.608Z,2.57
2023-01-12T05:00:05.621Z,2.00
2023-01-12T05:02:32.246Z,2.33
2023-01-12T05:04:58.825Z,2.20
2023-01-12T05:07:25.436Z,2.43
2023-01-12T05:10:10.768Z,2.60
2023-01-12T05:12:37.349Z,2.73
2023-01-12T05:15:04.238Z,2.83
2023-01-12T05:17:32.270Z,2.60
2023-01-12T05:20:00.800Z,2.50
2023-01-12T05:22:27.761Z,2.47
2023-01-12T05:24:54.405Z,2.50
2023-01-12T05:27:21.264Z,2.30
2023-01-12T05:29:47.881Z,2.47
2023-01-12T05:32:14.532Z,2.07
2023-01-12T05:34:41.769Z,2.93
2023-01-12T05:37:08.392Z,2.47
2023-01-12T05:39:34.978Z,2.67
2023-01-12T05:42:20.160Z,2.23
2023-01-12T05:44:46.767Z,3.50
2023-01-12T05:47:13.446Z,2.87
2023-01-12T05:49:40.050Z,2.97
2023-01-12T05:52:06.631Z,2.27
2023-01-12T05:54:33.253Z,3.23
2023-01-12T05:56:59.873Z,2.27
2023-01-12T05:59:26.476Z,2.83
2023-01-12T06:01:53.380Z,2.73
2023-01-12T06:04:20.075Z,2.20
2023-01-12T06:06:46.683Z,2.50
2023-01-12T06:09:13.313Z,2.90
2023-01-12T06:12:03.110Z,2.80
2023-01-12T06:14:35.685Z,2.90
2023-01-12T06:17:02.410Z,2.17
2023-01-12T06:19:29.111Z,2.07
2023-01-12T06:21:59.343Z,2.00
2023-01-12T06:24:28.193Z,2.17
2023-01-12T06:26:55.342Z,2.07
2023-01-12T06:29:21.982Z,2.30
2023-01-12T06:31:48.615Z,2.30
2023-01-12T06:34:15.275Z,2.60
2023-01-12T06:36:43.061Z,2.10
2023-01-12T06:39:11.737Z,2.63
2023-01-12T06:41:56.931Z,2.67
2023-01-12T06:44:23.568Z,2.50
2023-01-12T06:46:50.300Z,2.83
2023-01-12T06:49:16.912Z,2.00
2023-01-12T06:51:43.937Z,2.20
2023-01-12T06:54:10.553Z,2.23
2023-01-12T06:56:37.164Z,1.90
2023-01-12T06:59:03.792Z,2.17
2023-01-12T07:01:30.497Z,2.23
2023-01-12T07:03:57.186Z,2.57
2023-01-12T07:06:23.768Z,2.17
2023-01-12T07:08:50.387Z,2.57
2023-01-12T07:11:17.086Z,2.20
2023-01-12T07:13:43.747Z,1.93
2023-01-12T07:16:10.411Z,2.17
2023-01-12T07:18:37.011Z,2.40
2023-01-12T07:21:07.656Z,2.73
2023-01-12T07:23:35.031Z,2.10
2023-01-12T07:26:01.666Z,2.33
2023-01-12T07:28:28.364Z,2.20
2023-01-12T07:30:59.514Z,2.40
2023-01-12T07:33:26.524Z,2.07
2023-01-12T07:35:54.372Z,2.10
2023-01-12T07:38:20.995Z,2.03
2023-01-12T07:40:47.591Z,2.70
2023-01-12T07:43:17.215Z,2.20
2023-01-12T07:45:43.826Z,2.67
2023-01-12T07:48:10.475Z,2.17
2023-01-12T07:50:37.184Z,2.07
2023-01-12T07:53:04.270Z,2.13
2023-01-12T07:55:31.930Z,2.13
2023-01-12T07:58:01.000Z,2.20
2023-01-12T08:00:28.207Z,2.10
2023-01-12T08:02:55.753Z,2.20
2023-01-12T08:05:23.168Z,2.40
2023-01-12T08:07:49.981Z,2.90
2023-01-12T08:10:16.928Z,3.07
2023-01-12T08:12:43.612Z,2.30
2023-01-12T08:15:11.506Z,2.43
2023-01-12T08:17:43.099Z,2.33
2023-01-12T08:20:20.423Z,2.10
2023-01-12T08:22:48.551Z,2.30
2023-01-12T08:25:20.650Z,2.10
2023-01-12T08:27:50.070Z,1.90
2023-01-12T08:30:18.390Z,2.53
2023-01-12T08:32:45.313Z,2.83
2023-01-12T08:35:15.510Z,2.37
2023-01-12T08:37:42.213Z,2.43
2023-01-12T08:40:09.500Z,1.93
2023-01-12T08:42:36.096Z,2.20
2023-01-12T08:45:02.922Z,2.77
2023-01-12T08:47:30.483Z,2.60
2023-01-12T08:49:59.333Z,2.57
2023-01-12T08:52:29.328Z,3.13
2023-01-12T08:54:56.226Z,2.20
2023-01-12T08:57:22.882Z,2.30
2023-01-12T08:59:49.546Z,2.43
2023-01-12T09:02:16.476Z,2.37
2023-01-12T09:04:43.259Z,2.93
2023-01-12T09:07:10.648Z,2.30
2023-01-12T09:09:37.427Z,2.10
2023-01-12T09:12:04.699Z,2.77
2023-01-12T09:14:31.348Z,2.17
2023-01-12T09:16:58.536Z,2.90
2023-01-12T09:19:25.304Z,2.07
2023-01-12T09:21:51.928Z,2.00
2023-01-12T09:24:18.519Z,2.63
2023-01-12T09:26:46.658Z,2.13
2023-01-12T09:29:14.224Z,2.47
2023-01-12T09:31:43.057Z,1.80
2023-01-12T09:34:10.018Z,1.70
2023-01-12T09:36:39.637Z,2.20
2023-01-12T09:39:09.880Z,1.90
2023-01-12T09:42:07.885Z,1.70
2023-01-12T09:44:55.809Z,2.00
2023-01-12T09:47:39.775Z,1.70
2023-01-12T09:50:10.188Z,2.00
2023-01-12T09:52:47.981Z,1.70
2023-01-12T09:55:17.632Z,1.90
2023-01-12T09:58:06.051Z,1.80
2023-01-12T10:00:32.759Z,2.03
2023-01-12T10:03:10.121Z,1.87
2023-01-12T10:05:47.789Z,2.10
2023-01-12T10:08:31.280Z,1.97
2023-01-12T10:11:19.671Z,1.83
2023-01-12T10:14:09.825Z,2.40
2023-01-12T10:17:02.718Z,1.70
2023-01-12T10:20:06.900Z,1.50
2023-01-12T10:22:42.122Z,1.87
2023-01-12T10:25:19.827Z,1.97
2023-01-12T10:27:48.457Z,2.43
2023-01-12T10:30:18.420Z,1.70
2023-01-12T10:32:45.317Z,1.90
2023-01-12T10:35:15.243Z,1.93
2023-01-12T10:37:55.746Z,1.60
2023-01-12T10:40:31.465Z,2.17
2023-01-12T10:43:20.206Z,2.40
2023-01-12T10:46:17.687Z,1.63
2023-01-12T10:48:46.475Z,1.60
2023-01-12T10:51:33.837Z,1.60
2023-01-12T10:54:02.794Z,1.70
2023-01-12T10:56:36.644Z,1.83
2023-01-12T10:59:12.595Z,1.65
2023-01-12T11:02:13.681Z,2.70
2023-01-12T11:04:43.648Z,1.67
2023-01-12T11:07:25.796Z,2.10
2023-01-12T11:09:53.926Z,1.47
2023-01-12T11:12:35.067Z,1.90
2023-01-12T11:15:14.859Z,2.47
2023-01-12T11:18:00.280Z,1.63
2023-01-12T11:20:39.546Z,2.27
2023-01-12T11:23:53.248Z,1.57
2023-01-12T11:26:25.515Z,1.92
2023-01-12T11:28:53.659Z,1.50
2023-01-12T11:31:33.046Z,1.90
2023-01-12T11:34:05.414Z,1.80
2023-01-12T11:36:35.995Z,1.53
2023-01-12T11:39:06.916Z,3.47
2023-01-12T11:42:08.627Z,2.60
2023-01-12T11:44:49.167Z,1.87
2023-01-12T11:47:21.140Z,2.50
2023-01-12T11:49:53.382Z,2.17
2023-01-12T11:52:21.581Z,2.28
2023-01-12T11:54:48.201Z,2.03
2023-01-12T11:57:40.302Z,1.90
2023-01-12T12:00:44.445Z,1.90
2023-01-12T12:03:30.070Z,2.10
2023-01-12T12:06:10.360Z,2.50
2023-01-12T12:08:46.112Z,1.97
2023-01-12T12:11:33.336Z,2.30
2023-01-12T12:14:21.319Z,2.23
2023-01-12T12:16:58.952Z,2.07
2023-01-12T12:19:33.437Z,2.13
2023-01-12T12:22:38.518Z,5.00
2023-01-12T12:25:11.015Z,3.38
2023-01-12T12:28:07.128Z,2.13
2023-01-12T12:30:57.990Z,2.03
2023-01-12T12:33:50.218Z,1.60
2023-01-12T12:36:47.914Z,2.30
2023-01-12T12:39:32.232Z,2.67
2023-01-12T12:42:23.606Z,1.90
2023-01-12T12:45:12.990Z,2.57
2023-01-12T12:47:54.745Z,1.60
2023-01-12T12:50:24.359Z,1.83
2023-01-12T12:53:03.675Z,1.20
2023-01-12T12:55:30.879Z,1.60
2023-01-12T12:58:01.688Z,1.43
2023-01-12T13:00:43.443Z,2.40
2023-01-12T13:03:10.327Z,1.57
2023-01-12T13:05:46.344Z,1.50
2023-01-12T13:08:23.338Z,1.83
2023-01-12T13:10:59.923Z,1.50
2023-01-12T13:13:32.069Z,0.93
2023-01-12T13:16:17.617Z,1.17
2023-01-12T13:18:50.240Z,0.98
2023-01-12T13:21:57.891Z,0.98
2023-01-12T13:24:41.428Z,1.30
2023-01-12T13:27:45.633Z,1.30
2023-01-12T13:30:20.108Z,1.52
2023-01-12T13:35:48.532Z,1.08
2023-01-12T13:38:34.142Z,1.30
2023-01-12T13:41:37.369Z,1.03
2023-01-12T13:44:04.484Z,1.13
2023-01-12T13:46:36.863Z,0.77
2023-01-12T13:49:03.855Z,0.98
2023-01-12T13:51:39.832Z,0.90
2023-01-12T13:54:15.013Z,1.08
2023-01-12T13:56:42.763Z,1.00
2023-01-12T13:59:19.034Z,1.33
2023-01-12T14:01:47.871Z,0.68
2023-01-12T14:04:19.878Z,1.55
2023-01-12T14:06:57.837Z,0.90
2023-01-12T14:09:33.567Z,0.70
2023-01-12T14:12:11.843Z,1.05
2023-01-12T14:15:18.703Z,0.90
2023-01-12T14:17:57.632Z,0.75
2023-01-12T14:20:31.123Z,1.13
2023-01-12T14:23:29.727Z,1.23
2023-01-12T14:26:05.098Z,0.90
2023-01-12T14:28:32.562Z,0.57
2023-01-12T14:31:03.362Z,0.80
2023-01-12T14:33:32.534Z,0.85
2023-01-12T14:36:13.426Z,0.63
2023-01-12T14:38:42.377Z,0.80
2023-01-12T14:41:35.282Z,0.67
2023-01-12T14:44:20.858Z,0.82
2023-01-12T14:46:53.304Z,0.90
2023-01-12T14:49:30.946Z,0.80
2023-01-12T14:52:03.803Z,0.85
2023-01-12T14:54:33.240Z,0.90
2023-01-12T14:57:01.896Z,0.75
2023-01-12T14:59:48.418Z,0.70
2023-01-12T15:02:14.953Z,0.80
2023-01-12T15:04:57.232Z,1.08
2023-01-12T15:07:24.997Z,0.70
2023-01-12T15:09:55.125Z,0.68
2023-01-12T15:12:26.064Z,0.88
2023-01-12T15:15:15.056Z,0.70
2023-01-12T15:18:00.496Z,0.88
2023-01-12T15:20:47.176Z,0.70
2023-01-12T15:23:32.933Z,0.65
2023-01-12T15:25:59.625Z,1.00
2023-01-12T15:28:28.116Z,1.15
2023-01-12T15:30:55.758Z,1.70
2023-01-12T15:33:22.610Z,1.10
2023-01-12T15:35:49.260Z,1.30
2023-01-12T15:38:20.668Z,0.68
2023-01-12T15:40:48.558Z,0.90
2023-01-12T15:43:16.956Z,1.10
2023-01-12T15:45:45.736Z,1.20
2023-01-12T15:48:13.134Z,0.80
2023-01-12T15:50:44.476Z,1.00
2023-01-12T15:53:19.501Z,0.70
2023-01-12T15:55:46.877Z,0.68
2023-01-12T15:58:14.353Z,0.60
2023-01-12T16:00:43.367Z,0.70
2023-01-12T16:03:32.139Z,0.90
2023-01-12T16:05:59.778Z,1.42
2023-01-12T16:08:26.371Z,1.97
2023-01-12T16:11:11.599Z,1.23
2023-01-12T16:13:38.414Z,0.70
2023-01-12T16:16:06.227Z,0.90
2023-01-12T16:18:34.433Z,0.90
2023-01-12T16:21:01.635Z,1.60
2023-01-12T16:23:28.693Z,1.02
2023-01-12T16:25:59.420Z,1.00
2023-01-12T16:28:29.166Z,0.82
2023-01-12T16:30:56.876Z,0.90
2023-01-12T16:33:23.559Z,1.20
2023-01-12T16:35:50.240Z,0.85
2023-01-12T16:38:17.184Z,10.68
2023-01-12T16:40:45.047Z,2.20
2023-01-12T16:43:12.074Z,1.10
2023-01-12T16:45:42.630Z,0.65
2023-01-12T16:48:09.307Z,0.82
2023-01-12T16:50:42.531Z,0.90
2023-01-12T16:53:10.361Z,1.00
2023-01-12T16:55:38.200Z,0.85
2023-01-12T16:58:05.871Z,0.60
2023-01-12T17:00:35.930Z,0.90
2023-01-12T17:03:03.161Z,0.80
2023-01-12T17:05:30.551Z,0.70
2023-01-12T17:07:57.183Z,0.63
2023-01-12T17:10:23.946Z,0.57
2023-01-12T17:13:00.841Z,0.88
2023-01-12T17:15:29.995Z,1.10
2023-01-12T17:17:59.102Z,0.80
2023-01-12T17:20:27.485Z,0.70
2023-01-12T17:22:54.234Z,0.70
2023-01-12T17:25:20.893Z,0.80
2023-01-12T17:27:48.322Z,0.90
2023-01-12T17:30:15.197Z,1.38
2023-01-12T17:32:41.952Z,0.90
2023-01-12T17:35:09.608Z,0.85
2023-01-12T17:37:36.576Z,0.70
2023-01-12T17:40:04.004Z,0.90
2023-01-12T17:42:49.317Z,0.90
2023-01-12T17:45:16.064Z,0.65
2023-01-12T17:47:42.689Z,0.90
2023-01-12T17:50:10.123Z,0.50
2023-01-12T17:52:36.735Z,1.70
2023-01-12T17:55:03.408Z,2.55
2023-01-12T17:57:31.588Z,1.52
2023-01-12T17:59:58.546Z,0.90
2023-01-12T18:02:25.387Z,0.70
2023-01-12T18:04:52.031Z,1.45
2023-01-12T18:07:18.733Z,1.00
2023-01-12T18:09:45.331Z,1.35
2023-01-12T18:12:12.459Z,1.30
2023-01-12T18:14:39.119Z,0.60
2023-01-12T18:17:06.727Z,2.75
2023-01-12T18:19:33.621Z,2.50
2023-01-12T18:22:05.969Z,4.18
2023-01-12T18:24:33.737Z,6.03
2023-01-12T18:27:00.785Z,0.80
2023-01-12T18:29:27.509Z,0.80
2023-01-12T18:31:54.078Z,1.60
2023-01-12T18:34:20.673Z,1.95
2023-01-12T18:36:47.371Z,1.60
2023-01-12T18:39:20.537Z,4.50
2023-01-12T18:42:06.948Z,2.33
2023-01-12T18:44:33.900Z,1.08
2023-01-12T18:47:20.858Z,0.90
2023-01-12T18:49:48.858Z,1.00
2023-01-12T18:52:35.505Z,0.80
2023-01-12T18:55:03.560Z,1.23
2023-01-12T18:57:31.871Z,1.45
2023-01-12T19:00:04.684Z,0.80
2023-01-12T19:02:31.365Z,1.10
2023-01-12T19:05:21.168Z,1.33
2023-01-12T19:07:50.644Z,1.10
2023-01-12T19:10:17.322Z,0.90
2023-01-12T19:12:45.947Z,0.70
2023-01-12T19:15:31.842Z,0.85
2023-01-12T19:17:58.635Z,0.70
2023-01-12T19:20:31.758Z,0.82
2023-01-12T19:23:17.150Z,0.77
2023-01-12T19:26:12.763Z,0.70
2023-01-12T19:28:40.739Z,0.75
2023-01-12T19:31:12.269Z,1.00
2023-01-12T19:33:39.309Z,0.60
2023-01-12T19:36:07.857Z,1.10
2023-01-12T19:38:36.039Z,0.60
2023-01-12T19:41:11.857Z,0.65
2023-01-12T19:43:44.820Z,0.70
2023-01-12T19:46:12.928Z,0.70
2023-01-12T19:48:39.572Z,0.70
2023-01-12T19:51:10.803Z,0.63
2023-01-12T19:53:38.448Z,0.60
2023-01-12T19:56:11.592Z,0.60
2023-01-12T19:58:38.681Z,0.70
2023-01-12T20:01:05.499Z,0.85
2023-01-12T20:03:32.277Z,0.60
2023-01-12T20:05:59.141Z,0.60
2023-01-12T20:08:25.863Z,0.77
2023-01-12T20:10:54.336Z,0.60
2023-01-12T20:13:21.115Z,0.60
2023-01-12T20:15:50.206Z,0.98
2023-01-12T20:18:18.681Z,0.60
2023-01-12T20:20:45.854Z,0.60
2023-01-12T20:23:13.322Z,0.50
2023-01-12T20:25:40.397Z,0.50
2023-01-12T20:28:07.580Z,0.52
2023-01-12T20:30:38.706Z,0.60
2023-01-12T20:33:06.672Z,0.90
2023-01-12T20:35:38.493Z,0.70
2023-01-12T20:38:06.947Z,0.60
2023-01-12T20:40:33.866Z,0.70
2023-01-12T20:43:00.751Z,0.60
2023-01-12T20:45:27.469Z,0.60
2023-01-12T20:47:55.765Z,0.70
2023-01-12T20:50:23.317Z,0.77
2023-01-12T20:52:50.990Z,0.60
2023-01-12T20:55:17.750Z,0.70
2023-01-12T20:57:44.585Z,0.70
2023-01-12T21:00:12.478Z,0.90
2023-01-12T21:02:40.504Z,0.60
2023-01-12T21:05:07.918Z,0.88
2023-01-12T21:07:34.591Z,0.80
2023-01-12T21:10:03.372Z,0.80
2023-01-12T21:12:29.988Z,1.02
2023-01-12T21:14:56.724Z,0.67
2023-01-12T21:17:23.537Z,0.70
2023-01-12T21:19:50.193Z,0.90
2023-01-12T21:22:16.828Z,0.70
2023-01-12T21:24:43.535Z,0.70
2023-01-12T21:27:12.528Z,0.80
2023-01-12T21:29:39.152Z,0.87
2023-01-12T21:32:08.355Z,0.77
2023-01-12T21:34:38.782Z,0.70
2023-01-12T21:37:05.677Z,0.93
2023-01-12T21:39:35.632Z,0.90
2023-01-12T21:42:26.411Z,0.95
2023-01-12T21:44:53.053Z,0.90
2023-01-12T21:47:20.900Z,1.00
2023-01-12T21:49:47.554Z,0.82
2023-01-12T21:52:14.394Z,0.80
2023-01-12T21:54:43.297Z,1.00
2023-01-12T21:57:12.589Z,1.20
2023-01-12T21:59:39.288Z,1.30
2023-01-12T22:02:06.185Z,0.80
2023-01-12T22:04:37.032Z,1.13
2023-01-12T22:07:03.773Z,1.07
2023-01-12T22:09:30.530Z,0.90
2023-01-12T22:12:00.143Z,1.20
2023-01-12T22:14:26.836Z,1.17
2023-01-12T22:16:53.462Z,0.90
2023-01-12T22:19:20.123Z,1.00
2023-01-12T22:21:46.975Z,1.33
2023-01-12T22:24:13.765Z,0.93
2023-01-12T22:26:40.491Z,0.82
2023-01-12T22:29:07.266Z,1.00
2023-01-12T22:31:38.004Z,0.90
2023-01-12T22:34:04.866Z,1.10
2023-01-12T22:36:37.089Z,0.70
2023-01-12T22:39:06.783Z,0.90
2023-01-12T22:41:36.726Z,1.20
2023-01-12T22:44:03.496Z,1.00
2023-01-12T22:46:32.384Z,1.00
2023-01-12T22:49:02.204Z,1.10
2023-01-12T22:51:31.438Z,1.10
2023-01-12T22:54:00.234Z,1.13
2023-01-12T22:56:27.095Z,1.10
2023-01-12T22:58:55.382Z,1.25
2023-01-12T23:01:26.528Z,1.20
2023-01-12T23:03:56.684Z,1.20
2023-01-12T23:06:24.443Z,1.10
2023-01-12T23:08:54.577Z,1.17
2023-01-12T23:11:23.072Z,1.10
2023-01-12T23:13:54.391Z,1.30
2023-01-12T23:16:21.375Z,0.90
2023-01-12T23:18:50.561Z,1.17
2023-01-12T23:21:20.067Z,1.10
2023-01-12T23:23:49.229Z,0.80
2023-01-12T23:26:19.974Z,1.30
2023-01-12T23:28:48.642Z,1.05
2023-01-12T23:31:21.512Z,1.30
2023-01-12T23:33:49.198Z,1.10
2023-01-12T23:36:19.071Z,1.20
2023-01-12T23:38:48.128Z,1.37
2023-01-12T23:41:18.427Z,1.30
2023-01-12T23:43:51.747Z,1.00
2023-01-12T23:46:24.445Z,1.20
2023-01-12T23:48:55.397Z,1.10
2023-01-12T23:51:23.453Z,1.00
2023-01-12T23:53:55.259Z,1.13
2023-01-12T23:56:23.664Z,1.40
2023-01-12T23:58:50.832Z,1.13
